메인 페이지
METAR-TAF:

METAR-TAF

공항 :

키시너우 국제공항

키시너우, 몰도바

위도: 46-55-40N, 경도: 028-55-51E, 고도: 122m

현재 날씨관측

예보는 24분 전, 00:30시(UTC)에 발표되었습니다.
6kt
온도 15°C
습도 82%
기압 1013 hPa
시정 10km 이상
1500m 미만 상공 구름 및 적란운 없음

METAR: LUKK 290030Z 09006KT CAVOK 15/12 Q1013 R09/D BECMG BKN010 SCT030CB

시각: 03:54 (00:54 UTC)

예보

예보는 1 시간 34분 전, 23:20시(UTC)에 발표되었습니다.
예보 대상 시간: 29일 00시부터 29일 24시까지 (UTC)
6kt
시정 10km 이상
1500m 미만 상공 구름 및 적란운 없음
일시적
29일 02시부터 29일 06시까지 (UTC)
고도 1000ft 상공 구름 많음
고도 3000ft 상공 구름 보통, 적란운.
전환 중
29일 06시부터 29일 08시까지 (UTC)
남동12kt
시정: 5000m
고도 1500ft 상공 구름 많음
고도 2000ft 상공 구름 많음, 적란운.
소나기
일시적
29일 08시부터 29일 14시까지 (UTC)
여러 방향의 바람 16kt, 순간 최대 풍속 26kt
시정: 1000m
고도 300ft 상공 구름 많음
고도 1500ft 상공 구름 많음, 적란운.
뇌우, 비
전환 중
29일 15시부터 29일 17시까지 (UTC)
8kt
시정 10km 이상
고도 1000ft 상공 구름 많음
일시적
29일 17시부터 29일 24시까지 (UTC)
고도 600ft 상공 구름 많음

TAF: LUKK 282320Z 2900/2924 09006KT CAVOK TEMPO 2902/2906 BKN010 SCT030CB BECMG 2906/2908 13012KT 5000 SHRA BKN015 BKN020CB TEMPO 2908/2914 VRB16G26KT 1000 TSRA BKN003 BKN015CB BECMG 2915/2917 26008KT 9999 NSW BKN010 TEMPO 2917/2924 BKN006

4,000개 이상의 공항 관측 자료 및 예보 (METAR 및 TAF 보고).

지도상에서 검색 가능한 기상관측소가 노란 점과 빨간 점으로 표시되어 있습니다.

기상관측소 명을 보려면 표시 위로 마우스를 이동하세요.

날씨 관측과 예보를 보려면 클릭하세요.

지도 변경 : 확대하려면 엑스 표시가 있는 녹색 버튼, 축소하려면 빼기 표시가 있는 녹색 버튼, 다음 페이지의 지도를 보려면 녹색 화살표를 클릭하세요.


METAR-TAF: